Ninilchik, Alaska
Current Conditions -  °F | °C
As of 9:22 PM on Tuesday 27 Jan 2015 (Local Time) from PAHO Reporting Station
Overcast Overcast  
Wind Chill: 24°   Ceiling: 6000
Heat Index: 24°   Visibility: 10mi
Dew Point: 19°   Wind: 3mph
Humidity: 81%   Direction: 40°NE
Pressure: 29.95"   Gusts: NA
Location:  60.05°N, 151.65°W
Report Text: PAHO 280622Z 04003KT 10SM FEW009 OVC060 M04/M07 A2995 RMK AO2 T10441072
Loading
Personal Weather Stations






























Interactive Weather Map New forecast layout! Learn more

10-Day Weather Forecast

Advertisements
Track Severe Weather on mobile